Hanalei, Hawaii
Current Conditions -  °F | °C
As of 4:53 PM on Friday 24 Oct 2014 (Local Time) from PHLI Reporting Station
Scattered Clouds Scattered Clouds  
Wind Chill: 82°   Ceiling: Unl
Heat Index: 86°   Visibility: 10mi
Dew Point: 70°   Wind: 12mph
Humidity: 67%   Direction: 80°E
Pressure: 30.02"   Gusts: NA
Location:  22.2°N, 159.49°W
Report Text: PHLI 250253Z 08010KT 10SM SCT023 SCT032 28/21 A3002 RMK AO2 SLP161 P0006 60012 T02780211 53001
Loading
Personal Weather Stations






























Interactive Weather Map
Tropical Storm Tracking
New forecast layout! Learn more

10-Day Weather Forecast

Advertisements
Track Severe Weather on mobile